sensor_id;sensor_type;location;lat;lon;timestamp;P1;durP1;ratioP1;P2;durP2;ratioP2
73015;SDS011;61893;50.074;14.440;2022-10-31T00:00:01;57.70;;;29.08;;
73015;SDS011;61893;50.074;14.440;2022-10-31T00:02:27;143.80;;;30.20;;
73015;SDS011;61893;50.074;14.440;2022-10-31T00:04:53;208.45;;;34.80;;
73015;SDS011;61893;50.074;14.440;2022-10-31T00:07:19;182.45;;;33.65;;
73015;SDS011;61893;50.074;14.440;2022-10-31T00:09:45;165.75;;;32.13;;
73015;SDS011;61893;50.074;14.440;2022-10-31T00:12:12;79.00;;;30.55;;
73015;SDS011;61893;50.074;14.440;2022-10-31T00:14:38;82.78;;;31.45;;
73015;SDS011;61893;50.074;14.440;2022-10-31T00:17:04;57.65;;;29.70;;
73015;SDS011;61893;50.074;14.440;2022-10-31T00:19:30;61.45;;;33.05;;
73015;SDS011;61893;50.074;14.440;2022-10-31T00:21:55;63.67;;;33.00;;
73015;SDS011;61893;50.074;14.440;2022-10-31T00:24:21;65.78;;;33.97;;
73015;SDS011;61893;50.074;14.440;2022-10-31T00:26:47;75.10;;;34.80;;
73015;SDS011;61893;50.074;14.440;2022-10-31T00:29:13;98.20;;;37.67;;
73015;SDS011;61893;50.074;14.440;2022-10-31T00:31:39;205.40;;;43.38;;
73015;SDS011;61893;50.074;14.440;2022-10-31T00:34:05;170.00;;;38.88;;
73015;SDS011;61893;50.074;14.440;2022-10-31T00:40:10;219.73;;;39.80;;
73015;SDS011;61893;50.074;14.440;2022-10-31T00:43:16;98.15;;;35.67;;
73015;SDS011;61893;50.074;14.440;2022-10-31T00:45:58;70.00;;;32.97;;
73015;SDS011;61893;50.074;14.440;2022-10-31T00:48:24;78.88;;;32.40;;
73015;SDS011;61893;50.074;14.440;2022-10-31T00:50:53;76.43;;;31.10;;
73015;SDS011;61893;50.074;14.440;2022-10-31T00:53:19;57.58;;;30.15;;
73015;SDS011;61893;50.074;14.440;2022-10-31T00:55:44;82.47;;;31.00;;
73015;SDS011;61893;50.074;14.440;2022-10-31T00:58:10;108.28;;;32.42;;
73015;SDS011;61893;50.074;14.440;2022-10-31T01:00:36;169.60;;;33.22;;
73015;SDS011;61893;50.074;14.440;2022-10-31T01:03:02;67.55;;;29.92;;
73015;SDS011;61893;50.074;14.440;2022-10-31T01:05:27;97.03;;;28.88;;
73015;SDS011;61893;50.074;14.440;2022-10-31T01:07:55;77.25;;;28.90;;
73015;SDS011;61893;50.074;14.440;2022-10-31T01:10:20;83.13;;;29.65;;
73015;SDS011;61893;50.074;14.440;2022-10-31T01:12:47;187.95;;;32.00;;
73015;SDS011;61893;50.074;14.440;2022-10-31T01:15:15;191.57;;;31.15;;
73015;SDS011;61893;50.074;14.440;2022-10-31T01:17:51;108.57;;;29.00;;
73015;SDS011;61893;50.074;14.440;2022-10-31T01:20:17;97.32;;;28.50;;
73015;SDS011;61893;50.074;14.440;2022-10-31T01:22:43;110.15;;;28.25;;
73015;SDS011;61893;50.074;14.440;2022-10-31T01:25:09;197.30;;;30.60;;
73015;SDS011;61893;50.074;14.440;2022-10-31T01:27:36;67.80;;;27.85;;
73015;SDS011;61893;50.074;14.440;2022-10-31T01:30:01;149.23;;;30.23;;
73015;SDS011;61893;50.074;14.440;2022-10-31T01:32:28;58.05;;;27.70;;
73015;SDS011;61893;50.074;14.440;2022-10-31T01:34:56;94.47;;;26.13;;
73015;SDS011;61893;50.074;14.440;2022-10-31T01:37:24;86.22;;;26.25;;
73015;SDS011;61893;50.074;14.440;2022-10-31T01:39:56;61.28;;;25.98;;
73015;SDS011;61893;50.074;14.440;2022-10-31T01:42:51;69.05;;;25.88;;
73015;SDS011;61893;50.074;14.440;2022-10-31T01:45:29;89.10;;;26.45;;
73015;SDS011;61893;50.074;14.440;2022-10-31T01:48:16;90.43;;;26.38;;
73015;SDS011;61893;50.074;14.440;2022-10-31T01:50:51;323.02;;;33.33;;
73015;SDS011;61893;50.074;14.440;2022-10-31T01:53:19;448.63;;;36.30;;
73015;SDS011;61893;50.074;14.440;2022-10-31T01:55:49;493.95;;;35.00;;
73015;SDS011;61893;50.074;14.440;2022-10-31T01:58:20;119.95;;;28.55;;
73015;SDS011;61893;50.074;14.440;2022-10-31T02:00:51;199.32;;;30.58;;
73015;SDS011;61893;50.074;14.440;2022-10-31T02:03:24;135.50;;;28.67;;
73015;SDS011;61893;50.074;14.440;2022-10-31T02:06:03;103.75;;;28.45;;
73015;SDS011;61893;50.074;14.440;2022-10-31T02:08:35;114.30;;;30.55;;
73015;SDS011;61893;50.074;14.440;2022-10-31T02:11:07;87.22;;;27.67;;
73015;SDS011;61893;50.074;14.440;2022-10-31T02:13:49;106.28;;;29.33;;
73015;SDS011;61893;50.074;14.440;2022-10-31T02:16:15;105.97;;;31.02;;
73015;SDS011;61893;50.074;14.440;2022-10-31T02:18:44;189.00;;;31.27;;
73015;SDS011;61893;50.074;14.440;2022-10-31T02:21:15;139.48;;;31.38;;
73015;SDS011;61893;50.074;14.440;2022-10-31T02:30:03;553.30;;;43.70;;
73015;SDS011;61893;50.074;14.440;2022-10-31T02:46:48;264.30;;;40.78;;
73015;SDS011;61893;50.074;14.440;2022-10-31T02:52:16;290.85;;;38.88;;
73015;SDS011;61893;50.074;14.440;2022-10-31T02:54:47;151.95;;;32.88;;
73015;SDS011;61893;50.074;14.440;2022-10-31T02:57:13;323.40;;;40.13;;
73015;SDS011;61893;50.074;14.440;2022-10-31T02:59:49;120.85;;;30.50;;
73015;SDS011;61893;50.074;14.440;2022-10-31T03:05:28;142.60;;;31.30;;
73015;SDS011;61893;50.074;14.440;2022-10-31T03:10:54;194.43;;;33.00;;
73015;SDS011;61893;50.074;14.440;2022-10-31T03:13:35;150.40;;;28.88;;
73015;SDS011;61893;50.074;14.440;2022-10-31T03:21:34;117.90;;;28.10;;
73015;SDS011;61893;50.074;14.440;2022-10-31T03:24:06;111.55;;;28.85;;
73015;SDS011;61893;50.074;14.440;2022-10-31T03:26:35;76.38;;;26.17;;
73015;SDS011;61893;50.074;14.440;2022-10-31T03:29:08;174.45;;;31.42;;
73015;SDS011;61893;50.074;14.440;2022-10-31T03:31:49;159.40;;;32.03;;
73015;SDS011;61893;50.074;14.440;2022-10-31T03:34:19;374.73;;;36.97;;
73015;SDS011;61893;50.074;14.440;2022-10-31T03:37:03;234.40;;;32.22;;
73015;SDS011;61893;50.074;14.440;2022-10-31T03:39:41;149.32;;;30.60;;
73015;SDS011;61893;50.074;14.440;2022-10-31T03:42:14;111.70;;;31.42;;
73015;SDS011;61893;50.074;14.440;2022-10-31T03:44:42;257.85;;;35.25;;
73015;SDS011;61893;50.074;14.440;2022-10-31T03:47:14;90.22;;;26.13;;
73015;SDS011;61893;50.074;14.440;2022-10-31T03:49:42;196.57;;;32.75;;
73015;SDS011;61893;50.074;14.440;2022-10-31T03:52:12;248.18;;;32.13;;
73015;SDS011;61893;50.074;14.440;2022-10-31T03:55:13;174.95;;;28.92;;
73015;SDS011;61893;50.074;14.440;2022-10-31T03:58:12;132.23;;;26.70;;
73015;SDS011;61893;50.074;14.440;2022-10-31T04:00:46;115.97;;;27.02;;
73015;SDS011;61893;50.074;14.440;2022-10-31T04:03:21;149.35;;;30.85;;
73015;SDS011;61893;50.074;14.440;2022-10-31T04:05:51;99.07;;;26.70;;
73015;SDS011;61893;50.074;14.440;2022-10-31T04:08:25;81.80;;;26.20;;
73015;SDS011;61893;50.074;14.440;2022-10-31T04:11:02;314.25;;;31.35;;
73015;SDS011;61893;50.074;14.440;2022-10-31T04:13:37;145.40;;;25.73;;
73015;SDS011;61893;50.074;14.440;2022-10-31T04:16:44;247.73;;;28.65;;
73015;SDS011;61893;50.074;14.440;2022-10-31T04:19:14;173.88;;;25.60;;
73015;SDS011;61893;50.074;14.440;2022-10-31T04:22:03;110.35;;;24.00;;
73015;SDS011;61893;50.074;14.440;2022-10-31T04:24:28;175.18;;;25.27;;
73015;SDS011;61893;50.074;14.440;2022-10-31T04:27:13;56.83;;;21.90;;
73015;SDS011;61893;50.074;14.440;2022-10-31T04:29:38;69.60;;;21.92;;
73015;SDS011;61893;50.074;14.440;2022-10-31T04:32:04;135.98;;;25.42;;
73015;SDS011;61893;50.074;14.440;2022-10-31T04:34:30;85.95;;;23.67;;
73015;SDS011;61893;50.074;14.440;2022-10-31T04:36:56;252.00;;;28.58;;
73015;SDS011;61893;50.074;14.440;2022-10-31T04:39:27;98.03;;;24.05;;
73015;SDS011;61893;50.074;14.440;2022-10-31T04:42:18;76.20;;;22.88;;
73015;SDS011;61893;50.074;14.440;2022-10-31T04:44:50;93.63;;;22.42;;
73015;SDS011;61893;50.074;14.440;2022-10-31T04:47:16;123.70;;;25.23;;
73015;SDS011;61893;50.074;14.440;2022-10-31T04:49:47;69.60;;;22.48;;
73015;SDS011;61893;50.074;14.440;2022-10-31T04:52:31;84.50;;;22.38;;
73015;SDS011;61893;50.074;14.440;2022-10-31T04:55:03;77.13;;;22.13;;
73015;SDS011;61893;50.074;14.440;2022-10-31T04:57:28;93.53;;;21.88;;
73015;SDS011;61893;50.074;14.440;2022-10-31T05:00:17;93.80;;;20.80;;
73015;SDS011;61893;50.074;14.440;2022-10-31T05:02:53;120.13;;;23.33;;
73015;SDS011;61893;50.074;14.440;2022-10-31T05:05:35;71.35;;;21.60;;
73015;SDS011;61893;50.074;14.440;2022-10-31T05:08:24;205.90;;;22.77;;
73015;SDS011;61893;50.074;14.440;2022-10-31T05:10:49;242.18;;;26.50;;
73015;SDS011;61893;50.074;14.440;2022-10-31T05:13:15;197.20;;;25.77;;
73015;SDS011;61893;50.074;14.440;2022-10-31T05:15:41;231.82;;;25.10;;
73015;SDS011;61893;50.074;14.440;2022-10-31T05:18:10;172.48;;;22.70;;
73015;SDS011;61893;50.074;14.440;2022-10-31T05:20:58;190.40;;;24.77;;
73015;SDS011;61893;50.074;14.440;2022-10-31T05:23:30;222.68;;;25.92;;
73015;SDS011;61893;50.074;14.440;2022-10-31T05:26:16;65.75;;;19.92;;
73015;SDS011;61893;50.074;14.440;2022-10-31T05:28:51;146.93;;;21.55;;
73015;SDS011;61893;50.074;14.440;2022-10-31T05:31:20;151.80;;;21.20;;
73015;SDS011;61893;50.074;14.440;2022-10-31T05:33:46;166.35;;;22.50;;
73015;SDS011;61893;50.074;14.440;2022-10-31T05:36:12;82.55;;;17.08;;
73015;SDS011;61893;50.074;14.440;2022-10-31T05:38:40;171.13;;;21.00;;
73015;SDS011;61893;50.074;14.440;2022-10-31T05:41:06;76.13;;;18.52;;
73015;SDS011;61893;50.074;14.440;2022-10-31T05:43:34;243.18;;;26.50;;
73015;SDS011;61893;50.074;14.440;2022-10-31T05:46:00;105.22;;;18.20;;
73015;SDS011;61893;50.074;14.440;2022-10-31T05:48:26;61.88;;;18.00;;
73015;SDS011;61893;50.074;14.440;2022-10-31T05:50:52;93.72;;;19.10;;
73015;SDS011;61893;50.074;14.440;2022-10-31T05:53:21;72.28;;;19.98;;
73015;SDS011;61893;50.074;14.440;2022-10-31T05:56:13;63.35;;;18.70;;
73015;SDS011;61893;50.074;14.440;2022-10-31T05:58:42;69.10;;;18.33;;
73015;SDS011;61893;50.074;14.440;2022-10-31T06:01:23;128.65;;;20.80;;
73015;SDS011;61893;50.074;14.440;2022-10-31T06:03:55;178.13;;;22.35;;
73015;SDS011;61893;50.074;14.440;2022-10-31T06:06:20;154.00;;;23.75;;
73015;SDS011;61893;50.074;14.440;2022-10-31T06:08:46;234.15;;;27.30;;
73015;SDS011;61893;50.074;14.440;2022-10-31T06:11:23;263.67;;;27.17;;
73015;SDS011;61893;50.074;14.440;2022-10-31T06:13:49;145.70;;;21.55;;
73015;SDS011;61893;50.074;14.440;2022-10-31T06:19:30;125.90;;;23.75;;
73015;SDS011;61893;50.074;14.440;2022-10-31T06:21:56;104.97;;;19.42;;
73015;SDS011;61893;50.074;14.440;2022-10-31T06:24:22;258.58;;;23.40;;
73015;SDS011;61893;50.074;14.440;2022-10-31T06:26:50;91.70;;;20.02;;
73015;SDS011;61893;50.074;14.440;2022-10-31T06:29:17;235.48;;;22.90;;
73015;SDS011;61893;50.074;14.440;2022-10-31T06:31:58;204.13;;;20.00;;
73015;SDS011;61893;50.074;14.440;2022-10-31T06:34:24;208.82;;;21.10;;
73015;SDS011;61893;50.074;14.440;2022-10-31T06:36:50;100.50;;;18.23;;
73015;SDS011;61893;50.074;14.440;2022-10-31T06:39:17;164.40;;;20.02;;
73015;SDS011;61893;50.074;14.440;2022-10-31T06:41:46;109.93;;;18.65;;
73015;SDS011;61893;50.074;14.440;2022-10-31T06:44:14;175.48;;;19.75;;
73015;SDS011;61893;50.074;14.440;2022-10-31T06:46:43;188.65;;;22.38;;
73015;SDS011;61893;50.074;14.440;2022-10-31T06:49:12;68.38;;;17.38;;
73015;SDS011;61893;50.074;14.440;2022-10-31T06:51:38;258.08;;;23.10;;
73015;SDS011;61893;50.074;14.440;2022-10-31T06:54:09;69.80;;;17.35;;
73015;SDS011;61893;50.074;14.440;2022-10-31T06:56:47;250.82;;;24.85;;
73015;SDS011;61893;50.074;14.440;2022-10-31T06:59:17;66.35;;;17.15;;
73015;SDS011;61893;50.074;14.440;2022-10-31T07:47:42;28.75;;;13.30;;
73015;SDS011;61893;50.074;14.440;2022-10-31T07:53:51;52.28;;;14.57;;
73015;SDS011;61893;50.074;14.440;2022-10-31T07:59:23;33.88;;;11.23;;
73015;SDS011;61893;50.074;14.440;2022-10-31T08:01:51;35.08;;;11.40;;
73015;SDS011;61893;50.074;14.440;2022-10-31T08:51:01;19.45;;;12.00;;
73015;SDS011;61893;50.074;14.440;2022-10-31T09:02:40;30.52;;;10.65;;
73015;SDS011;61893;50.074;14.440;2022-10-31T09:51:45;29.52;;;10.75;;
73015;SDS011;61893;50.074;14.440;2022-10-31T10:00:23;29.73;;;18.08;;
73015;SDS011;61893;50.074;14.440;2022-10-31T10:39:41;40.92;;;22.83;;
73015;SDS011;61893;50.074;14.440;2022-10-31T13:12:09;39.80;;;20.75;;
73015;SDS011;61893;50.074;14.440;2022-10-31T13:18:22;40.33;;;20.90;;
73015;SDS011;61893;50.074;14.440;2022-10-31T13:53:12;35.78;;;19.42;;
73015;SDS011;61893;50.074;14.440;2022-10-31T14:33:00;36.38;;;21.38;;
73015;SDS011;61893;50.074;14.440;2022-10-31T14:54:31;40.92;;;20.67;;
73015;SDS011;61893;50.074;14.440;2022-10-31T15:00:49;36.33;;;21.23;;
73015;SDS011;61893;50.074;14.440;2022-10-31T15:12:26;36.53;;;20.95;;
73015;SDS011;61893;50.074;14.440;2022-10-31T15:18:26;45.08;;;22.75;;
73015;SDS011;61893;50.074;14.440;2022-10-31T16:04:19;47.55;;;22.80;;
73015;SDS011;61893;50.074;14.440;2022-10-31T16:16:26;95.43;;;27.42;;
73015;SDS011;61893;50.074;14.440;2022-10-31T16:25:14;50.42;;;23.27;;
73015;SDS011;61893;50.074;14.440;2022-10-31T16:28:02;61.47;;;23.23;;
73015;SDS011;61893;50.074;14.440;2022-10-31T16:46:24;108.72;;;25.00;;
73015;SDS011;61893;50.074;14.440;2022-10-31T16:52:28;149.95;;;25.38;;
73015;SDS011;61893;50.074;14.440;2022-10-31T16:55:16;85.70;;;24.58;;
73015;SDS011;61893;50.074;14.440;2022-10-31T17:06:32;62.78;;;24.80;;
73015;SDS011;61893;50.074;14.440;2022-10-31T17:12:17;107.18;;;23.58;;
73015;SDS011;61893;50.074;14.440;2022-10-31T17:21:02;74.78;;;25.35;;
73015;SDS011;61893;50.074;14.440;2022-10-31T17:24:08;77.95;;;24.60;;
73015;SDS011;61893;50.074;14.440;2022-10-31T17:36:23;62.80;;;23.63;;
73015;SDS011;61893;50.074;14.440;2022-10-31T17:39:32;83.57;;;23.45;;
73015;SDS011;61893;50.074;14.440;2022-10-31T17:42:19;190.07;;;26.23;;
73015;SDS011;61893;50.074;14.440;2022-10-31T17:51:00;66.97;;;24.13;;
73015;SDS011;61893;50.074;14.440;2022-10-31T17:53:44;331.20;;;32.13;;
73015;SDS011;61893;50.074;14.440;2022-10-31T17:56:29;60.47;;;22.77;;
73015;SDS011;61893;50.074;14.440;2022-10-31T18:14:19;47.17;;;22.50;;
73015;SDS011;61893;50.074;14.440;2022-10-31T18:25:36;179.25;;;27.50;;
73015;SDS011;61893;50.074;14.440;2022-10-31T18:28:44;85.43;;;26.48;;
73015;SDS011;61893;50.074;14.440;2022-10-31T18:38:28;86.57;;;26.27;;
73015;SDS011;61893;50.074;14.440;2022-10-31T18:41:12;56.67;;;26.20;;
73015;SDS011;61893;50.074;14.440;2022-10-31T18:44:30;72.45;;;25.92;;
73015;SDS011;61893;50.074;14.440;2022-10-31T18:48:04;52.10;;;25.25;;
73015;SDS011;61893;50.074;14.440;2022-10-31T18:51:01;298.52;;;32.45;;
73015;SDS011;61893;50.074;14.440;2022-10-31T18:54:20;87.18;;;27.13;;
73015;SDS011;61893;50.074;14.440;2022-10-31T19:06:03;111.57;;;28.48;;
73015;SDS011;61893;50.074;14.440;2022-10-31T19:08:47;232.15;;;33.80;;
73015;SDS011;61893;50.074;14.440;2022-10-31T19:20:22;223.23;;;30.05;;
73015;SDS011;61893;50.074;14.440;2022-10-31T19:23:11;186.35;;;29.98;;
73015;SDS011;61893;50.074;14.440;2022-10-31T19:26:08;58.45;;;27.08;;
73015;SDS011;61893;50.074;14.440;2022-10-31T19:29:10;411.48;;;37.47;;
73015;SDS011;61893;50.074;14.440;2022-10-31T19:31:56;169.70;;;29.48;;
73015;SDS011;61893;50.074;14.440;2022-10-31T19:37:46;160.45;;;27.42;;
73015;SDS011;61893;50.074;14.440;2022-10-31T19:46:12;159.48;;;29.48;;
73015;SDS011;61893;50.074;14.440;2022-10-31T19:49:27;108.28;;;26.42;;
73015;SDS011;61893;50.074;14.440;2022-10-31T20:13:33;69.90;;;20.27;;
73015;SDS011;61893;50.074;14.440;2022-10-31T20:16:25;104.90;;;22.23;;
73015;SDS011;61893;50.074;14.440;2022-10-31T20:19:31;104.07;;;21.25;;
73015;SDS011;61893;50.074;14.440;2022-10-31T21:10:27;162.98;;;22.95;;
73015;SDS011;61893;50.074;14.440;2022-10-31T21:19:05;139.98;;;21.98;;
73015;SDS011;61893;50.074;14.440;2022-10-31T21:30:52;51.67;;;19.40;;
73015;SDS011;61893;50.074;14.440;2022-10-31T21:33:36;99.03;;;19.60;;
73015;SDS011;61893;50.074;14.440;2022-10-31T21:36:26;73.13;;;19.88;;
73015;SDS011;61893;50.074;14.440;2022-10-31T21:39:38;65.90;;;20.80;;
73015;SDS011;61893;50.074;14.440;2022-10-31T21:42:46;126.90;;;21.75;;
73015;SDS011;61893;50.074;14.440;2022-10-31T21:51:29;188.73;;;21.95;;
73015;SDS011;61893;50.074;14.440;2022-10-31T21:57:42;49.15;;;19.88;;
73015;SDS011;61893;50.074;14.440;2022-10-31T22:14:39;88.85;;;19.05;;
73015;SDS011;61893;50.074;14.440;2022-10-31T22:17:31;151.68;;;21.30;;
73015;SDS011;61893;50.074;14.440;2022-10-31T22:20:27;112.65;;;21.75;;
73015;SDS011;61893;50.074;14.440;2022-10-31T22:23:32;170.65;;;21.95;;
73015;SDS011;61893;50.074;14.440;2022-10-31T22:29:05;124.05;;;24.75;;
73015;SDS011;61893;50.074;14.440;2022-10-31T22:31:53;54.50;;;19.15;;
73015;SDS011;61893;50.074;14.440;2022-10-31T22:34:36;82.57;;;21.75;;
73015;SDS011;61893;50.074;14.440;2022-10-31T22:39:54;135.43;;;21.35;;
73015;SDS011;61893;50.074;14.440;2022-10-31T22:45:54;112.40;;;20.77;;
73015;SDS011;61893;50.074;14.440;2022-10-31T22:48:53;110.45;;;21.10;;
73015;SDS011;61893;50.074;14.440;2022-10-31T22:51:38;107.55;;;20.42;;
73015;SDS011;61893;50.074;14.440;2022-10-31T22:57:03;55.10;;;19.73;;
73015;SDS011;61893;50.074;14.440;2022-10-31T23:00:23;89.20;;;20.90;;
73015;SDS011;61893;50.074;14.440;2022-10-31T23:03:05;129.23;;;21.50;;
73015;SDS011;61893;50.074;14.440;2022-10-31T23:05:31;86.63;;;19.35;;
73015;SDS011;61893;50.074;14.440;2022-10-31T23:07:56;112.60;;;19.65;;
73015;SDS011;61893;50.074;14.440;2022-10-31T23:13:07;127.22;;;19.80;;
73015;SDS011;61893;50.074;14.440;2022-10-31T23:15:59;66.65;;;18.23;;
73015;SDS011;61893;50.074;14.440;2022-10-31T23:18:35;75.50;;;19.98;;
73015;SDS011;61893;50.074;14.440;2022-10-31T23:21:04;40.42;;;17.33;;
73015;SDS011;61893;50.074;14.440;2022-10-31T23:23:32;43.53;;;18.02;;
73015;SDS011;61893;50.074;14.440;2022-10-31T23:26:03;74.18;;;18.27;;
73015;SDS011;61893;50.074;14.440;2022-10-31T23:28:50;121.20;;;20.23;;
73015;SDS011;61893;50.074;14.440;2022-10-31T23:31:30;62.13;;;18.00;;
73015;SDS011;61893;50.074;14.440;2022-10-31T23:33:55;89.95;;;18.80;;
73015;SDS011;61893;50.074;14.440;2022-10-31T23:36:29;136.23;;;20.57;;
73015;SDS011;61893;50.074;14.440;2022-10-31T23:38:54;62.40;;;18.52;;
73015;SDS011;61893;50.074;14.440;2022-10-31T23:44:16;175.57;;;20.08;;
73015;SDS011;61893;50.074;14.440;2022-10-31T23:46:54;196.55;;;21.55;;
73015;SDS011;61893;50.074;14.440;2022-10-31T23:49:46;125.53;;;20.33;;
73015;SDS011;61893;50.074;14.440;2022-10-31T23:52:28;100.22;;;21.83;;
73015;SDS011;61893;50.074;14.440;2022-10-31T23:55:26;150.52;;;21.63;;
